Cravat, Illinois
Current Conditions -  °F | °C
As of 2:55 AM on Saturday 22 Nov 2014 (Local Time) from KENL Reporting Station
Overcast Overcast  
Wind Chill: 36°   Ceiling: 9000
Heat Index: 42°   Visibility: 10mi
Dew Point: 30°   Wind: 12mph
Humidity: 63%   Direction: 170°S
Pressure: 30.19"   Gusts: NA
Location:  38.5134°N, 89.1673°W
Report Text: KENL 220855Z AUTO 17010KT 10SM OVC090 06/M01 A3019 RMK AO2 T00561009
Loading
Personal Weather Stations






























Interactive Weather Map New forecast layout! Learn more

10-Day Weather Forecast

Advertisements
Track Severe Weather on mobile